Narathiwat, Thailand
Current Conditions -  °F | °C
As of 5:00 PM on Monday 29 Dec 2014 (Local Time) from WMKC Reporting Station
Light Rain Light Rain  
Wind Chill: 81°   Ceiling: 22000
Heat Index: 85°   Visibility: 6mi
Dew Point: 73°   Wind: 15mph
Humidity: 79%   Direction: 70°ENE
Pressure: 29.83"   Gusts: NA
Location:  6.43°N, 101.82°E
Report Text: WMKC 291000Z 07013KT 030V100 9000 -RA FEW010 SCT022 OVC220 27/23 Q1010
Loading
Personal Weather Stations






























Interactive Weather Map New forecast layout! Learn more

10-Day Weather Forecast

Advertisements
Track Severe Weather on mobile